No particular awareness of the weather is required.    There are no Weather-warnings


Meteo18 Weather Cam more information Meteo18 Weather Cam


Thunder radar more information blitzortung!


Rain radar more information rain snow radar


Visit our other weather sites:

Template documentation
and downloads

And another site



Weather Underground History page Text

Daily Summary for July 9, 2017 Units:  English    Metric   Both
« Previous Day
Next Day »
Daily Weekly Monthly Yearly Custom
  High: Low: Average:
Temperature: TemperatureC °F 17.3 °F 20.8 °F
Dew Point: DewpointC °F 16.5 °F 18.3 °F
Humidity: Humidity % 52 % 86 %
Wind Speed: WindSpeedKMH mph 0.0 mph 2.5 mph
Wind Gust: WindSpeedGustKMH mph - -
Wind:- - SE
Pressure: PressurehPa in 1010.4 in -
Precipitation: 14.5 in    
Historical Graphs
 
 
Tabular Data for July 9, 2017
Time Temperature Dew Point Pressure Wind Wind Speed Wind Gust Humidity Rainfall Rate (Hourly)
TemperatureC °F DewpointC °F PressurehPa in Calm     Humidity % HourlyPrecipMM in
00:02 19.6 °F 17.7 °F 1015.8 in NNE 6.4 mph 6.4 mph 89 % 1.5 in
00:07 19.6 °F 17.9 °F 1015.5 in NNE 3.2 mph 8.0 mph 90 % 1.3 in
00:12 19.5 °F 18.0 °F 1015.5 in North 4.8 mph 8.0 mph 91 % 0.8 in
00:17 19.6 °F 17.9 °F 1015.5 in NW 1.6 mph 9.7 mph 90 % 0.5 in
00:22 19.7 °F 18.0 °F 1015.5 in NW 4.8 mph 9.7 mph 90 % 0.8 in
00:37 19.6 °F 18.1 °F 1015.5 in NW 11.3 mph 11.3 mph 91 % 0.5 in
00:42 19.8 °F 17.9 °F 1015.5 in NNW 1.6 mph 11.3 mph 89 % 0.3 in
00:47 19.8 °F 17.9 °F 1015.5 in SSW 11.3 mph 11.3 mph 89 % 0.3 in
00:52 19.7 °F 17.8 °F 1015.5 in WSW 4.8 mph 12.9 mph 89 % 0.3 in
00:57 19.8 °F 17.8 °F 1015.5 in Calm   12.9 mph 88 % 0.3 in
01:02 19.7 °F 17.7 °F 1015.5 in SSW 3.2 mph 12.9 mph 88 % 0.3 in
01:07 19.7 °F 17.7 °F 1015.5 in Calm   14.5 mph 88 % 0.3 in
01:17 19.6 °F 17.7 °F 1015.1 in Calm   12.9 mph 89 % 0.3 in
01:22 19.6 °F 17.9 °F 1015.1 in Calm   3.2 mph 90 % 0.0 in
01:27 19.6 °F 17.9 °F 1015.1 in Calm   1.6 mph 90 % 0.0 in
01:32 19.6 °F 17.9 °F 1014.8 in Calm   1.6 mph 90 % 0.0 in
01:37 19.6 °F 17.9 °F 1014.8 in Calm   1.6 mph 90 % 0.0 in
01:42 19.6 °F 18.1 °F 1014.8 in Calm   1.6 mph 91 % 0.0 in
01:52 19.3 °F 17.8 °F 1014.8 in Calm   3.2 mph 91 % 0.0 in
01:57 19.3 °F 18.0 °F 1015.1 in SW 1.6 mph 3.2 mph 92 % 0.0 in
02:02 19.2 °F 17.9 °F 1014.8 in Calm   3.2 mph 92 % 0.0 in
02:07 19.2 °F 17.9 °F 1014.8 in Calm   3.2 mph 92 % 0.0 in
02:12 19.2 °F 18.0 °F 1014.8 in Calm   3.2 mph 93 % 0.0 in
02:17 19.2 °F 18.0 °F 1014.8 in Calm   1.6 mph 93 % 0.0 in
02:22 19.1 °F 17.9 °F 1014.8 in Calm     93 % 0.0 in
02:27 19.2 °F 18.0 °F 1014.4 in Calm   1.6 mph 93 % 0.0 in
02:32 19.2 °F 18.0 °F 1014.4 in Calm   1.6 mph 93 % 0.0 in
02:42 19.2 °F 18.0 °F 1014.4 in Calm   1.6 mph 93 % 0.0 in
02:52 19.2 °F 18.0 °F 1014.4 in Calm   1.6 mph 93 % 0.0 in
02:57 19.1 °F 17.9 °F 1014.4 in Calm   1.6 mph 93 % 0.0 in
03:02 19.1 °F 17.9 °F 1014.1 in Calm   1.6 mph 93 % 0.0 in
03:07 19.0 °F 17.8 °F 1014.1 in Calm   1.6 mph 93 % 0.0 in
03:12 19.0 °F 17.8 °F 1013.8 in WNW 1.6 mph 1.6 mph 93 % 0.0 in
03:22 18.9 °F 17.7 °F 1014.1 in Calm   3.2 mph 93 % 0.0 in
03:27 18.9 °F 17.7 °F 1014.1 in SE 1.6 mph 3.2 mph 93 % 0.0 in
03:32 18.9 °F 17.9 °F 1013.8 in Calm   3.2 mph 94 % 0.0 in
03:37 18.8 °F 17.8 °F 1013.8 in Calm   3.2 mph 94 % 0.0 in
03:42 18.8 °F 17.8 °F 1013.8 in Calm   3.2 mph 94 % 0.0 in
03:47 18.7 °F 17.7 °F 1014.1 in SSE 1.6 mph 1.6 mph 94 % 0.0 in
03:52 18.6 °F 17.6 °F 1014.1 in East 1.6 mph 1.6 mph 94 % 0.0 in
03:57 18.5 °F 17.5 °F 1013.8 in Calm   3.2 mph 94 % 0.0 in
04:02 18.4 °F 17.4 °F 1013.8 in Calm   3.2 mph 94 % 0.0 in
04:12 18.3 °F 17.5 °F 1013.8 in Calm   1.6 mph 95 % 0.0 in
04:17 18.3 °F 17.5 °F 1013.8 in Calm   1.6 mph 95 % 0.0 in
04:22 18.3 °F 17.5 °F 1013.8 in Calm   1.6 mph 95 % 0.0 in
04:27 18.3 °F 17.5 °F 1013.8 in Calm     95 % 0.0 in
04:32 18.2 °F 17.4 °F 1013.8 in Calm     95 % 0.0 in
04:37 18.1 °F 17.3 °F 1013.8 in Calm     95 % 0.0 in
04:42 18.1 °F 17.3 °F 1013.4 in Calm     95 % 0.0 in
04:47 18.0 °F 17.2 °F 1013.4 in Calm     95 % 0.0 in
04:52 17.9 °F 17.1 °F 1013.4 in Calm     95 % 0.0 in
04:57 17.9 °F 17.1 °F 1013.4 in Calm     95 % 0.0 in
05:02 17.9 °F 17.1 °F 1013.4 in Calm     95 % 0.0 in
05:07 17.9 °F 17.3 °F 1013.4 in Calm     96 % 0.0 in
05:12 17.9 °F 17.1 °F 1013.4 in Calm     95 % 0.0 in
05:17 17.8 °F 17.0 °F 1013.4 in Calm     95 % 0.0 in
05:22 17.8 °F 17.0 °F 1013.4 in North 3.2 mph 3.2 mph 95 % 0.0 in
05:27 17.7 °F 17.1 °F 1013.1 in North 3.2 mph 4.8 mph 96 % 0.0 in
05:32 17.7 °F 17.1 °F 1013.4 in Calm   4.8 mph 96 % 0.0 in
05:37 17.7 °F 17.1 °F 1013.4 in Calm   4.8 mph 96 % 0.0 in
05:42 17.6 °F 17.0 °F 1013.4 in Calm   3.2 mph 96 % 0.0 in
05:47 17.6 °F 17.0 °F 1013.4 in Calm     96 % 0.0 in
05:52 17.6 °F 17.0 °F 1013.4 in Calm     96 % 0.0 in
05:57 17.6 °F 17.0 °F 1013.4 in Calm     96 % 0.0 in
06:02 17.6 °F 17.0 °F 1013.4 in Calm     96 % 0.0 in
06:07 17.7 °F 17.1 °F 1013.4 in Calm     96 % 0.0 in
06:12 17.6 °F 17.0 °F 1013.4 in Calm   1.6 mph 96 % 0.0 in
06:17 17.6 °F 17.0 °F 1013.4 in Calm   1.6 mph 96 % 0.0 in
06:22 17.3 °F 16.5 °F 1013.4 in Calm   1.6 mph 95 % 0.0 in
06:32 17.4 °F 16.8 °F 1013.4 in Calm     96 % 0.0 in
06:37 17.5 °F 16.9 °F 1013.4 in Calm     96 % 0.0 in
06:42 17.6 °F 17.0 °F 1013.4 in Calm     96 % 0.0 in
06:47 17.6 °F 17.0 °F 1013.4 in NNW 3.2 mph   96 % 0.0 in
06:52 17.6 °F 17.0 °F 1013.4 in NW 4.8 mph 6.4 mph 96 % 0.0 in
06:57 17.6 °F 17.0 °F 1013.1 in North 1.6 mph 8.0 mph 96 % 0.0 in
07:02 17.7 °F 17.1 °F 1013.4 in Calm   8.0 mph 96 % 0.0 in
07:12 17.9 °F 17.3 °F 1013.4 in NNW 3.2 mph 6.4 mph 96 % 0.0 in
07:17 18.1 °F 17.6 °F 1013.1 in Calm   6.4 mph 97 % 0.0 in
07:22 18.3 °F 17.8 °F 1013.1 in NNW 1.6 mph 4.8 mph 97 % 0.0 in
07:27 18.4 °F 17.9 °F 1013.1 in North 4.8 mph 4.8 mph 97 % 0.0 in
07:32 18.6 °F 17.9 °F 1013.1 in Calm   3.2 mph 96 % 0.0 in
07:37 18.7 °F 18.0 °F 1013.1 in Calm   4.8 mph 96 % 0.0 in
07:42 18.7 °F 18.0 °F 1013.1 in Calm   4.8 mph 96 % 0.0 in
07:47 18.8 °F 18.1 °F 1012.8 in NNW 1.6 mph 4.8 mph 96 % 0.0 in
07:52 18.9 °F 18.2 °F 1012.8 in North 1.6 mph 6.4 mph 96 % 0.0 in
07:57 19.0 °F 18.3 °F 1012.8 in Calm   6.4 mph 96 % 0.0 in
08:02 19.1 °F 18.4 °F 1012.8 in NNW 1.6 mph 6.4 mph 96 % 0.0 in
08:07 19.3 °F 18.6 °F 1012.8 in NNW 3.2 mph 4.8 mph 96 % 0.0 in
08:12 19.4 °F 18.7 °F 1012.8 in Calm   3.2 mph 96 % 0.0 in
08:17 19.6 °F 18.9 °F 1012.8 in Calm   3.2 mph 96 % 0.0 in
08:22 19.9 °F 19.2 °F 1012.8 in NNE 1.6 mph 3.2 mph 96 % 0.0 in
08:32 20.1 °F 19.3 °F 1013.4 in Calm   4.8 mph 95 % 0.0 in
08:42 20.1 °F 19.1 °F 1013.4 in Calm   4.8 mph 94 % 0.0 in
08:47 20.2 °F 19.0 °F 1013.4 in Calm   4.8 mph 93 % 0.0 in
08:52 20.3 °F 19.1 °F 1013.4 in Calm   4.8 mph 93 % 0.0 in
08:57 20.4 °F 19.2 °F 1013.4 in Calm   3.2 mph 93 % 0.0 in
09:02 20.6 °F 19.4 °F 1013.4 in NNE 1.6 mph 3.2 mph 93 % 0.0 in
09:07 20.6 °F 19.3 °F 1013.4 in Calm   4.8 mph 92 % 0.0 in
09:12 20.7 °F 19.4 °F 1013.8 in NE 3.2 mph 4.8 mph 92 % 0.0 in
09:17 20.6 °F 19.3 °F 1013.8 in East 3.2 mph 4.8 mph 92 % 0.0 in
09:22 20.6 °F 19.3 °F 1013.8 in ENE 3.2 mph 8.0 mph 92 % 0.0 in
09:27 20.5 °F 19.2 °F 1014.1 in East 3.2 mph 8.0 mph 92 % 0.0 in
09:32 20.4 °F 19.1 °F 1013.8 in NNE 1.6 mph 8.0 mph 92 % 0.0 in
09:37 20.4 °F 19.1 °F 1013.8 in NE 6.4 mph 8.0 mph 92 % 0.0 in
09:42 20.3 °F 19.1 °F 1013.8 in NNE 6.4 mph 9.7 mph 93 % 0.0 in
09:47 20.3 °F 19.1 °F 1013.4 in ENE 6.4 mph 9.7 mph 93 % 0.0 in
09:52 20.3 °F 19.1 °F 1013.4 in NNE 6.4 mph 9.7 mph 93 % 0.0 in
09:57 20.3 °F 19.1 °F 1013.4 in NNE 11.3 mph 14.5 mph 93 % 0.0 in
10:02 20.3 °F 19.1 °F 1013.1 in NNE 12.9 mph 14.5 mph 93 % 0.0 in
10:07 20.4 °F 19.2 °F 1013.1 in NNE 9.7 mph 14.5 mph 93 % 0.0 in
10:12 20.6 °F 19.4 °F 1012.8 in North 9.7 mph 14.5 mph 93 % 0.0 in
10:17 20.5 °F 19.2 °F 1012.8 in NNE 11.3 mph 16.1 mph 92 % 0.0 in
10:22 20.6 °F 19.3 °F 1012.4 in NE 8.0 mph 22.5 mph 92 % 0.0 in
10:32 20.9 °F 19.4 °F 1012.1 in NNW 3.2 mph 22.5 mph 91 % 0.0 in
10:42 21.4 °F 19.3 °F 1012.4 in NNE 1.6 mph 24.1 mph 88 % 0.0 in
10:47 21.8 °F 19.7 °F 1012.8 in NW 4.8 mph 20.9 mph 88 % 0.0 in
10:52 22.0 °F 19.4 °F 1012.8 in NNW 6.4 mph 14.5 mph 85 % 0.0 in
10:57 22.1 °F 19.3 °F 1012.8 in East 1.6 mph 11.3 mph 84 % 0.0 in
11:02 22.3 °F 19.5 °F 1012.8 in NE 9.7 mph 11.3 mph 84 % 0.0 in
11:07 22.4 °F 19.4 °F 1012.8 in Calm   11.3 mph 83 % 0.0 in
11:12 22.7 °F 19.5 °F 1012.8 in Calm   11.3 mph 82 % 0.0 in
11:17 22.8 °F 19.4 °F 1013.1 in South 3.2 mph 11.3 mph 81 % 0.0 in
11:22 23.0 °F 19.8 °F 1013.4 in SE 1.6 mph 4.8 mph 82 % 0.0 in
11:32 23.3 °F 19.9 °F 1013.4 in Calm   6.4 mph 81 % 0.0 in
11:42 23.1 °F 19.5 °F 1013.4 in Calm   11.3 mph 80 % 0.0 in
11:47 23.2 °F 19.8 °F 1013.4 in Calm   6.4 mph 81 % 0.0 in
11:52 23.3 °F 19.5 °F 1013.4 in Calm   6.4 mph 79 % 0.0 in
11:57 23.3 °F 19.7 °F 1013.4 in Calm   6.4 mph 80 % 0.0 in
12:02 23.3 °F 19.2 °F 1013.4 in East 3.2 mph 9.7 mph 78 % 0.0 in
12:07 23.3 °F 19.2 °F 1013.4 in ENE 4.8 mph 12.9 mph 78 % 0.0 in
12:12 23.3 °F 19.5 °F 1013.4 in ENE 1.6 mph 12.9 mph 79 % 0.0 in
12:17 23.6 °F 19.7 °F 1013.4 in SE 1.6 mph 12.9 mph 79 % 0.0 in
12:22 23.9 °F 20.0 °F 1013.4 in ESE 6.4 mph 12.9 mph 79 % 0.0 in
12:32 24.5 °F 19.6 °F 1013.4 in NE 1.6 mph 11.3 mph 74 % 0.0 in
12:37 24.5 °F 19.6 °F 1013.1 in ENE 1.6 mph 11.3 mph 74 % 0.0 in
12:47 23.9 °F 19.0 °F 1012.8 in East 4.8 mph 12.9 mph 74 % 0.0 in
12:52 23.9 °F 19.2 °F 1012.8 in Calm   12.9 mph 75 % 0.0 in
12:57 24.0 °F 19.1 °F 1012.8 in ENE 6.4 mph 12.9 mph 74 % 0.0 in
13:02 24.0 °F 19.1 °F 1012.8 in East 4.8 mph 11.3 mph 74 % 0.0 in
13:07 24.3 °F 19.1 °F 1012.8 in East 6.4 mph 14.5 mph 73 % 0.0 in
13:12 24.3 °F 18.9 °F 1012.4 in NNE 8.0 mph 14.5 mph 72 % 0.0 in
13:17 24.4 °F 18.8 °F 1012.4 in ENE 6.4 mph 14.5 mph 71 % 0.0 in
13:22 24.4 °F 18.8 °F 1012.4 in ENE 9.7 mph 12.9 mph 71 % 0.0 in
13:27 24.4 °F 18.8 °F 1012.1 in ENE 9.7 mph 14.5 mph 71 % 0.0 in
13:32 24.6 °F 18.8 °F 1012.4 in ENE 8.0 mph 14.5 mph 70 % 0.0 in
13:37 24.7 °F 18.9 °F 1012.1 in East 6.4 mph 14.5 mph 70 % 0.0 in
13:42 24.8 °F 18.5 °F 1012.1 in East 8.0 mph 14.5 mph 68 % 0.0 in
13:47 24.9 °F 18.8 °F 1012.1 in East 6.4 mph 14.5 mph 69 % 0.0 in
13:52 25.1 °F 19.0 °F 1012.1 in Calm   14.5 mph 69 % 0.0 in
13:57 25.5 °F 18.9 °F 1012.1 in East 8.0 mph 14.5 mph 67 % 0.0 in
14:02 25.5 °F 19.2 °F 1012.1 in NE 4.8 mph 12.9 mph 68 % 0.0 in
14:07 25.5 °F 19.4 °F 1012.1 in ENE 6.4 mph 14.5 mph 69 % 0.0 in
14:12 25.4 °F 19.3 °F 1012.1 in ENE 4.8 mph 14.5 mph 69 % 0.0 in
14:17 25.6 °F 19.5 °F 1011.7 in ENE 4.8 mph 12.9 mph 69 % 0.0 in
14:27 25.6 °F 19.5 °F 1012.1 in ENE 6.4 mph 11.3 mph 69 % 0.0 in
14:37 25.6 °F 19.0 °F 1011.7 in ENE 1.6 mph 9.7 mph 67 % 0.0 in
14:42 25.4 °F 19.1 °F 1011.7 in ESE 1.6 mph 9.7 mph 68 % 0.0 in
14:47 25.4 °F 19.1 °F 1011.7 in East 1.6 mph 9.7 mph 68 % 0.0 in
14:52 25.4 °F 18.8 °F 1011.7 in NE 1.6 mph 8.0 mph 67 % 0.0 in
15:02 25.5 °F 18.2 °F 1011.7 in ENE 3.2 mph 6.4 mph 64 % 0.0 in
15:07 25.6 °F 18.3 °F 1011.7 in NE 1.6 mph 6.4 mph 64 % 0.0 in
15:12 25.6 °F 17.5 °F 1011.7 in NE 4.8 mph 6.4 mph 61 % 0.0 in
15:17 25.7 °F 18.1 °F 1011.7 in East 3.2 mph 8.0 mph 63 % 0.0 in
15:22 25.6 °F 17.3 °F 1011.7 in NE 3.2 mph 8.0 mph 60 % 0.0 in
15:27 25.6 °F 17.5 °F 1011.7 in NE 4.8 mph 8.0 mph 61 % 0.0 in
15:32 25.7 °F 17.9 °F 1011.7 in ENE 1.6 mph 8.0 mph 62 % 0.0 in
15:37 25.6 °F 18.0 °F 1011.7 in NE 3.2 mph 4.8 mph 63 % 0.0 in
15:42 25.6 °F 18.0 °F 1011.7 in NE 6.4 mph 6.4 mph 63 % 0.0 in
15:47 25.5 °F 18.2 °F 1011.4 in NNE 4.8 mph 8.0 mph 64 % 0.0 in
15:52 25.5 °F 18.4 °F 1011.4 in NNE 9.7 mph 11.3 mph 65 % 0.0 in
15:57 25.6 °F 18.3 °F 1011.4 in NNW 3.2 mph 11.3 mph 64 % 0.0 in
16:02 25.9 °F 18.6 °F 1011.1 in North 4.8 mph 11.3 mph 64 % 0.0 in
16:07 26.0 °F 17.9 °F 1011.1 in North 3.2 mph 11.3 mph 61 % 0.0 in
16:12 26.2 °F 18.8 °F 1011.1 in North 6.4 mph 11.3 mph 64 % 0.0 in
16:17 26.4 °F 18.5 °F 1011.1 in NNW 4.8 mph 11.3 mph 62 % 0.0 in
16:22 26.5 °F 18.1 °F 1010.7 in NNW 3.2 mph 12.9 mph 60 % 0.0 in
16:27 26.9 °F 18.5 °F 1010.7 in NNW 4.8 mph 12.9 mph 60 % 0.0 in
16:32 27.3 °F 18.3 °F 1010.7 in Calm   11.3 mph 58 % 0.0 in
16:37 27.6 °F 18.0 °F 1010.7 in ENE 1.6 mph 8.0 mph 56 % 0.0 in
16:42 27.9 °F 18.3 °F 1010.4 in ENE 8.0 mph 8.0 mph 56 % 0.0 in
16:47 28.1 °F 18.2 °F 1010.4 in ENE 3.2 mph 9.7 mph 55 % 0.0 in
16:57 27.9 °F 17.1 °F 1010.4 in SE 1.6 mph 14.5 mph 52 % 0.0 in
17:02 27.8 °F 17.0 °F 1010.4 in ENE 6.4 mph 16.1 mph 52 % 0.0 in
17:07 27.7 °F 17.2 °F 1010.4 in West 1.6 mph 16.1 mph 53 % 0.0 in
17:12 27.7 °F 17.8 °F 1010.7 in ENE 3.2 mph 12.9 mph 55 % 0.0 in
17:17 27.1 °F 18.9 °F 1010.7 in ESE 1.6 mph 12.9 mph 61 % 0.5 in
17:22 24.9 °F 18.3 °F 1010.7 in ENE 12.9 mph 24.1 mph 67 % 0.5 in
17:27 22.4 °F 17.3 °F 1010.7 in ENE 17.7 mph 24.1 mph 73 % 0.5 in
17:32 21.3 °F 17.5 °F 1011.1 in NE 9.7 mph 33.8 mph 79 % 0.5 in
17:37 20.8 °F 17.2 °F 1011.1 in NE 6.4 mph 33.8 mph 80 % 0.8 in
17:42 20.6 °F 17.4 °F 1011.4 in NNW 3.2 mph 29.0 mph 82 % 1.3 in
17:47 20.4 °F 17.0 °F 1011.4 in NE 14.5 mph 22.5 mph 81 % 2.3 in
17:52 19.7 °F 17.1 °F 1011.4 in NE 32.2 mph 32.2 mph 85 % 4.6 in
17:57 18.9 °F 16.7 °F 1011.1 in NE 22.5 mph 32.2 mph 87 % 6.1 in
18:02 19.2 °F 17.3 °F 1011.4 in ENE 9.7 mph 32.2 mph 89 % 8.4 in
18:07 19.3 °F 17.6 °F 1011.1 in NW 3.2 mph 32.2 mph 90 % 9.1 in
18:12 19.3 °F 17.8 °F 1011.1 in NW 3.2 mph 30.6 mph 91 % 10.4 in
18:17 19.3 °F 17.8 °F 1011.4 in Calm   22.5 mph 91 % 11.7 in
18:22 19.3 °F 18.0 °F 1011.4 in SE 3.2 mph 8.0 mph 92 % 12.7 in
18:27 19.3 °F 18.0 °F 1011.4 in SSW 1.6 mph 6.4 mph 92 % 12.7 in
18:32 19.4 °F 18.2 °F 1011.1 in South 1.6 mph 6.4 mph 93 % 13.0 in
18:37 19.4 °F 18.2 °F 1011.1 in SSE 4.8 mph 6.4 mph 93 % 13.2 in
18:42 19.4 °F 18.2 °F 1010.7 in Calm   6.4 mph 93 % 11.9 in
18:47 19.4 °F 18.2 °F 1010.7 in Calm   6.4 mph 93 % 11.2 in
18:52 19.4 °F 18.2 °F 1010.7 in Calm   4.8 mph 93 % 9.7 in
18:57 19.4 °F 18.2 °F 1010.7 in Calm   3.2 mph 93 % 7.4 in
19:02 19.6 °F 18.4 °F 1010.7 in WNW 1.6 mph 3.2 mph 93 % 5.3 in
19:07 19.7 °F 18.7 °F 1010.7 in Calm   4.8 mph 94 % 4.6 in
19:12 19.8 °F 18.6 °F 1010.7 in Calm   4.8 mph 93 % 3.3 in
19:17 19.9 °F 18.7 °F 1010.7 in Calm   4.8 mph 93 % 1.8 in
19:22 19.9 °F 18.7 °F 1010.7 in Calm   4.8 mph 93 % 1.0 in
19:32 20.2 °F 19.2 °F 1010.7 in Calm   3.2 mph 94 % 0.5 in
19:37 20.3 °F 19.1 °F 1011.1 in Calm   3.2 mph 93 % 0.3 in
19:42 20.3 °F 19.3 °F 1011.1 in Calm   1.6 mph 94 % 0.3 in
19:47 20.3 °F 19.1 °F 1011.1 in WNW 1.6 mph 1.6 mph 93 % 0.3 in
19:52 20.3 °F 19.1 °F 1011.1 in Calm   1.6 mph 93 % 0.0 in
19:57 20.3 °F 19.1 °F 1011.1 in Calm   1.6 mph 93 % 0.0 in
20:02 20.3 °F 19.1 °F 1011.1 in Calm   1.6 mph 93 % 0.0 in
20:12 20.2 °F 19.0 °F 1011.4 in Calm     93 % 0.0 in
20:17 20.1 °F 19.1 °F 1011.4 in Calm     94 % 0.0 in
20:22 20.1 °F 19.1 °F 1011.4 in Calm   1.6 mph 94 % 0.0 in
20:27 20.0 °F 19.0 °F 1011.4 in Calm   4.8 mph 94 % 0.0 in
20:32 19.9 °F 18.7 °F 1011.4 in Calm   4.8 mph 93 % 0.0 in
20:37 20.0 °F 18.8 °F 1011.4 in West 1.6 mph 4.8 mph 93 % 0.0 in
20:42 20.2 °F 19.2 °F 1011.4 in West 1.6 mph 4.8 mph 94 % 0.0 in
20:47 20.2 °F 19.2 °F 1011.4 in West 3.2 mph 4.8 mph 94 % 0.0 in
20:52 20.2 °F 19.2 °F 1011.4 in WNW 3.2 mph 4.8 mph 94 % 0.0 in
20:57 20.1 °F 19.1 °F 1011.4 in Calm   6.4 mph 94 % 0.0 in
21:02 20.1 °F 19.1 °F 1011.4 in Calm   6.4 mph 94 % 0.0 in
21:07 19.9 °F 18.9 °F 1011.4 in NNW 1.6 mph 6.4 mph 94 % 0.0 in
21:12 19.8 °F 18.8 °F 1011.1 in Calm   3.2 mph 94 % 0.0 in
21:17 19.8 °F 18.8 °F 1011.1 in NW 1.6 mph 3.2 mph 94 % 0.0 in
21:22 19.8 °F 18.8 °F 1011.1 in North 1.6 mph 3.2 mph 94 % 0.0 in
21:32 19.8 °F 18.8 °F 1011.1 in Calm   3.2 mph 94 % 0.0 in
21:37 19.7 °F 18.7 °F 1011.1 in Calm   3.2 mph 94 % 0.0 in
21:42 19.8 °F 19.0 °F 1011.1 in NE 3.2 mph 3.2 mph 95 % 0.0 in
21:47 19.7 °F 18.9 °F 1011.1 in ENE 1.6 mph 4.8 mph 95 % 0.0 in
21:52 19.6 °F 18.6 °F 1011.1 in ENE 3.2 mph 4.8 mph 94 % 0.0 in
21:57 19.5 °F 18.7 °F 1011.1 in NE 3.2 mph 8.0 mph 95 % 0.0 in
22:02 19.4 °F 18.6 °F 1011.1 in Calm   8.0 mph 95 % 0.0 in
22:07 19.4 °F 18.6 °F 1011.4 in Calm   6.4 mph 95 % 0.0 in
22:12 19.3 °F 18.5 °F 1011.7 in Calm   3.2 mph 95 % 0.0 in
22:17 19.3 °F 18.5 °F 1011.7 in Calm     95 % 0.0 in
22:22 19.2 °F 18.4 °F 1011.7 in Calm     95 % 0.0 in
22:27 19.2 °F 18.4 °F 1011.7 in Calm     95 % 0.0 in
22:32 19.2 °F 18.4 °F 1011.7 in Calm     95 % 0.0 in
22:37 19.2 °F 18.4 °F 1012.1 in Calm     95 % 0.0 in
22:42 19.2 °F 18.4 °F 1012.1 in Calm     95 % 0.0 in
22:52 19.2 °F 18.4 °F 1012.1 in Calm     95 % 0.0 in
22:57 19.1 °F 18.3 °F 1012.1 in Calm     95 % 0.0 in
23:02 19.1 °F 18.4 °F 1012.1 in Calm     96 % 0.0 in
23:07 19.1 °F 18.4 °F 1012.4 in Calm     96 % 0.0 in
23:12 19.1 °F 18.4 °F 1012.4 in Calm     96 % 0.0 in
23:17 19.1 °F 18.4 °F 1012.1 in Calm     96 % 0.0 in
23:22 19.1 °F 18.4 °F 1012.4 in Calm     96 % 0.0 in
23:27 19.0 °F 18.3 °F 1012.8 in WSW 3.2 mph 3.2 mph 96 % 0.0 in
23:32 18.8 °F 18.1 °F 1012.4 in West 1.6 mph 6.4 mph 96 % 0.0 in
23:37 18.7 °F 18.0 °F 1012.4 in Calm   6.4 mph 96 % 0.0 in
23:42 18.7 °F 18.0 °F 1012.4 in Calm   6.4 mph 96 % 0.0 in
23:52 18.6 °F 17.9 °F 1012.4 in Calm   1.6 mph 96 % 0.0 in
23:57 18.6 °F 17.9 °F 1012.4 in Calm   1.6 mph 96 % 0.0 in
Meteo18
Compliments of Weather Underground - 4 mb

Script developed by  Jim McMurry - jmcmurry@mwt.net Adapted for the template by  Wim van der Kuil - Leuven-Template.eu

You find our weather info also at:

European Weather Network

Weather Underground

Equipment we use:

Weather-station
Davis Vue

Weather-program
Meteobridge

Weather-server
Raspberry PI 2 B+

Provider
1 and 1

Davis Vue

Meteobridge

Raspberry PI 2 B+

1 and 1